Ewing, Missouri
Current Conditions -  °F | °C
As of 5:35 PM on Friday 31 Oct 2014 (Local Time) from KHAE Reporting Station
Clear Clear  
Wind Chill: 34°   Ceiling: Unl
Heat Index: 41°   Visibility: 10mi
Dew Point: 14°   Wind: 13mph
Humidity: 33%   Direction: 350°N
Pressure: 30.38"   Gusts: 16mph
Location:  40.01°N, 91.71°W
Report Text: KHAE 312235Z AUTO 35011G14KT 10SM CLR 05/M10 A3038 RMK AO2
Loading
Personal Weather Stations






























Interactive Weather Map
Tropical Storm Tracking
New forecast layout! Learn more

10-Day Weather Forecast

Advertisements
Track Severe Weather on mobile